sensor_id;sensor_type;location;lat;lon;timestamp;P1;durP1;ratioP1;P2;durP2;ratioP2
30048;SDS011;16879;50.852;15.602;2022-12-07T00:01:11;6.75;;;4.50;;
30048;SDS011;16879;50.852;15.602;2022-12-07T00:03:38;8.63;;;5.13;;
30048;SDS011;16879;50.852;15.602;2022-12-07T00:06:05;7.40;;;5.20;;
30048;SDS011;16879;50.852;15.602;2022-12-07T00:08:31;7.20;;;5.75;;
30048;SDS011;16879;50.852;15.602;2022-12-07T00:11:11;5.75;;;4.53;;
30048;SDS011;16879;50.852;15.602;2022-12-07T00:13:38;6.72;;;4.78;;
30048;SDS011;16879;50.852;15.602;2022-12-07T00:16:05;11.20;;;6.10;;
30048;SDS011;16879;50.852;15.602;2022-12-07T00:18:32;14.75;;;7.85;;
30048;SDS011;16879;50.852;15.602;2022-12-07T00:20:59;29.40;;;14.85;;
30048;SDS011;16879;50.852;15.602;2022-12-07T00:23:26;18.90;;;10.52;;
30048;SDS011;16879;50.852;15.602;2022-12-07T00:25:52;10.63;;;5.70;;
30048;SDS011;16879;50.852;15.602;2022-12-07T00:28:18;6.63;;;4.22;;
30048;SDS011;16879;50.852;15.602;2022-12-07T00:30:44;12.57;;;6.55;;
30048;SDS011;16879;50.852;15.602;2022-12-07T00:33:10;19.55;;;10.55;;
30048;SDS011;16879;50.852;15.602;2022-12-07T00:35:36;24.65;;;12.32;;
30048;SDS011;16879;50.852;15.602;2022-12-07T00:38:02;17.45;;;10.30;;
30048;SDS011;16879;50.852;15.602;2022-12-07T00:40:30;12.32;;;7.20;;
30048;SDS011;16879;50.852;15.602;2022-12-07T00:42:56;6.53;;;3.05;;
30048;SDS011;16879;50.852;15.602;2022-12-07T00:45:22;4.53;;;2.85;;
30048;SDS011;16879;50.852;15.602;2022-12-07T00:47:48;3.45;;;2.38;;
30048;SDS011;16879;50.852;15.602;2022-12-07T00:50:14;4.78;;;2.67;;
30048;SDS011;16879;50.852;15.602;2022-12-07T00:52:41;7.63;;;4.57;;
30048;SDS011;16879;50.852;15.602;2022-12-07T00:55:07;3.88;;;1.40;;
30048;SDS011;16879;50.852;15.602;2022-12-07T00:57:33;2.47;;;1.23;;
30048;SDS011;16879;50.852;15.602;2022-12-07T00:59:59;13.23;;;4.40;;
30048;SDS011;16879;50.852;15.602;2022-12-07T01:02:26;14.68;;;5.43;;
30048;SDS011;16879;50.852;15.602;2022-12-07T01:04:52;9.75;;;3.80;;
30048;SDS011;16879;50.852;15.602;2022-12-07T01:07:18;6.18;;;2.55;;
30048;SDS011;16879;50.852;15.602;2022-12-07T01:09:44;13.13;;;4.40;;
30048;SDS011;16879;50.852;15.602;2022-12-07T01:12:10;13.93;;;4.53;;
30048;SDS011;16879;50.852;15.602;2022-12-07T01:14:37;8.75;;;3.58;;
30048;SDS011;16879;50.852;15.602;2022-12-07T01:17:03;2.28;;;1.58;;
30048;SDS011;16879;50.852;15.602;2022-12-07T01:19:29;2.33;;;1.45;;
30048;SDS011;16879;50.852;15.602;2022-12-07T01:21:55;2.38;;;1.65;;
30048;SDS011;16879;50.852;15.602;2022-12-07T01:24:24;3.75;;;1.90;;
30048;SDS011;16879;50.852;15.602;2022-12-07T01:26:50;2.75;;;2.00;;
30048;SDS011;16879;50.852;15.602;2022-12-07T01:29:16;4.72;;;2.05;;
30048;SDS011;16879;50.852;15.602;2022-12-07T01:31:42;2.85;;;1.40;;
30048;SDS011;16879;50.852;15.602;2022-12-07T01:34:08;1.98;;;1.13;;
30048;SDS011;16879;50.852;15.602;2022-12-07T01:36:35;2.97;;;1.60;;
30048;SDS011;16879;50.852;15.602;2022-12-07T01:39:06;2.58;;;1.50;;
30048;SDS011;16879;50.852;15.602;2022-12-07T01:41:33;2.60;;;1.85;;
30048;SDS011;16879;50.852;15.602;2022-12-07T01:44:08;1.58;;;1.13;;
30048;SDS011;16879;50.852;15.602;2022-12-07T01:46:35;1.38;;;0.95;;
30048;SDS011;16879;50.852;15.602;2022-12-07T01:49:02;2.55;;;1.23;;
30048;SDS011;16879;50.852;15.602;2022-12-07T01:51:29;1.75;;;0.90;;
30048;SDS011;16879;50.852;15.602;2022-12-07T01:53:55;1.63;;;1.10;;
30048;SDS011;16879;50.852;15.602;2022-12-07T01:56:23;1.73;;;1.20;;
30048;SDS011;16879;50.852;15.602;2022-12-07T01:58:51;2.60;;;1.80;;
30048;SDS011;16879;50.852;15.602;2022-12-07T02:01:20;2.50;;;1.70;;
30048;SDS011;16879;50.852;15.602;2022-12-07T02:03:46;4.72;;;2.45;;
30048;SDS011;16879;50.852;15.602;2022-12-07T02:06:23;4.15;;;1.73;;
30048;SDS011;16879;50.852;15.602;2022-12-07T02:09:16;1.83;;;1.42;;
30048;SDS011;16879;50.852;15.602;2022-12-07T02:11:43;2.47;;;1.52;;
30048;SDS011;16879;50.852;15.602;2022-12-07T02:14:09;1.92;;;1.20;;
30048;SDS011;16879;50.852;15.602;2022-12-07T02:26:51;7.25;;;1.80;;
30048;SDS011;16879;50.852;15.602;2022-12-07T02:29:24;5.18;;;1.60;;
30048;SDS011;16879;50.852;15.602;2022-12-07T02:34:32;3.13;;;2.08;;
30048;SDS011;16879;50.852;15.602;2022-12-07T02:37:09;4.28;;;2.05;;
30048;SDS011;16879;50.852;15.602;2022-12-07T02:39:46;5.63;;;2.63;;
30048;SDS011;16879;50.852;15.602;2022-12-07T02:42:15;9.63;;;2.80;;
30048;SDS011;16879;50.852;15.602;2022-12-07T02:44:43;2.40;;;1.42;;
30048;SDS011;16879;50.852;15.602;2022-12-07T02:47:11;3.03;;;1.70;;
30048;SDS011;16879;50.852;15.602;2022-12-07T02:49:38;6.05;;;2.33;;
30048;SDS011;16879;50.852;15.602;2022-12-07T02:52:05;6.68;;;2.45;;
30048;SDS011;16879;50.852;15.602;2022-12-07T02:54:31;4.97;;;2.15;;
30048;SDS011;16879;50.852;15.602;2022-12-07T03:07:11;1.75;;;1.50;;
30048;SDS011;16879;50.852;15.602;2022-12-07T03:12:28;3.08;;;1.50;;
30048;SDS011;16879;50.852;15.602;2022-12-07T03:15:03;1.48;;;1.38;;
30048;SDS011;16879;50.852;15.602;2022-12-07T03:17:32;2.55;;;1.70;;
30048;SDS011;16879;50.852;15.602;2022-12-07T03:20:01;2.22;;;2.00;;
30048;SDS011;16879;50.852;15.602;2022-12-07T03:22:29;1.98;;;1.63;;
30048;SDS011;16879;50.852;15.602;2022-12-07T03:25:00;1.75;;;1.63;;
30048;SDS011;16879;50.852;15.602;2022-12-07T03:27:52;4.38;;;2.83;;
30048;SDS011;16879;50.852;15.602;2022-12-07T03:30:22;3.47;;;3.10;;
30048;SDS011;16879;50.852;15.602;2022-12-07T03:32:53;4.05;;;2.53;;
30048;SDS011;16879;50.852;15.602;2022-12-07T03:40:28;8.05;;;3.47;;
30048;SDS011;16879;50.852;15.602;2022-12-07T03:43:09;2.95;;;1.83;;
30048;SDS011;16879;50.852;15.602;2022-12-07T03:46:42;3.05;;;1.83;;
30048;SDS011;16879;50.852;15.602;2022-12-07T03:48:59;8.93;;;2.97;;
30048;SDS011;16879;50.852;15.602;2022-12-07T03:54:29;6.05;;;3.22;;
30048;SDS011;16879;50.852;15.602;2022-12-07T03:57:17;6.07;;;3.45;;
30048;SDS011;16879;50.852;15.602;2022-12-07T04:00:11;7.40;;;4.15;;
30048;SDS011;16879;50.852;15.602;2022-12-07T04:03:15;7.05;;;4.05;;
30048;SDS011;16879;50.852;15.602;2022-12-07T04:05:58;7.40;;;5.30;;
30048;SDS011;16879;50.852;15.602;2022-12-07T04:08:31;13.60;;;6.20;;
30048;SDS011;16879;50.852;15.602;2022-12-07T04:10:57;10.30;;;6.65;;
30048;SDS011;16879;50.852;15.602;2022-12-07T04:13:23;11.15;;;6.60;;
30048;SDS011;16879;50.852;15.602;2022-12-07T04:15:51;13.95;;;7.22;;
30048;SDS011;16879;50.852;15.602;2022-12-07T04:18:18;11.93;;;7.50;;
30048;SDS011;16879;50.852;15.602;2022-12-07T04:20:45;11.80;;;7.43;;
30048;SDS011;16879;50.852;15.602;2022-12-07T04:23:13;13.30;;;7.65;;
30048;SDS011;16879;50.852;15.602;2022-12-07T04:25:39;10.93;;;7.43;;
30048;SDS011;16879;50.852;15.602;2022-12-07T04:28:06;12.65;;;7.38;;
30048;SDS011;16879;50.852;15.602;2022-12-07T04:30:32;11.38;;;8.13;;
30048;SDS011;16879;50.852;15.602;2022-12-07T04:32:58;10.18;;;7.97;;
30048;SDS011;16879;50.852;15.602;2022-12-07T04:35:25;10.50;;;7.13;;
30048;SDS011;16879;50.852;15.602;2022-12-07T04:38:11;13.00;;;8.95;;
30048;SDS011;16879;50.852;15.602;2022-12-07T04:40:38;10.05;;;7.43;;
30048;SDS011;16879;50.852;15.602;2022-12-07T04:43:05;10.27;;;6.93;;
30048;SDS011;16879;50.852;15.602;2022-12-07T04:45:32;8.77;;;6.63;;
30048;SDS011;16879;50.852;15.602;2022-12-07T04:48:01;10.43;;;7.20;;
30048;SDS011;16879;50.852;15.602;2022-12-07T04:50:34;8.85;;;6.53;;
30048;SDS011;16879;50.852;15.602;2022-12-07T04:53:06;7.88;;;6.10;;
30048;SDS011;16879;50.852;15.602;2022-12-07T04:55:41;9.68;;;7.13;;
30048;SDS011;16879;50.852;15.602;2022-12-07T04:58:08;8.95;;;6.88;;
30048;SDS011;16879;50.852;15.602;2022-12-07T05:00:36;8.90;;;6.40;;
30048;SDS011;16879;50.852;15.602;2022-12-07T05:03:06;9.38;;;6.50;;
30048;SDS011;16879;50.852;15.602;2022-12-07T05:05:32;9.85;;;7.15;;
30048;SDS011;16879;50.852;15.602;2022-12-07T05:08:01;10.43;;;6.72;;
30048;SDS011;16879;50.852;15.602;2022-12-07T05:10:27;10.75;;;7.03;;
30048;SDS011;16879;50.852;15.602;2022-12-07T05:12:53;10.65;;;6.57;;
30048;SDS011;16879;50.852;15.602;2022-12-07T05:15:21;9.85;;;6.88;;
30048;SDS011;16879;50.852;15.602;2022-12-07T05:17:47;9.13;;;6.38;;
30048;SDS011;16879;50.852;15.602;2022-12-07T05:20:13;8.70;;;6.30;;
30048;SDS011;16879;50.852;15.602;2022-12-07T05:22:39;9.07;;;6.25;;
30048;SDS011;16879;50.852;15.602;2022-12-07T05:25:07;10.05;;;6.93;;
30048;SDS011;16879;50.852;15.602;2022-12-07T05:27:33;9.85;;;6.40;;
30048;SDS011;16879;50.852;15.602;2022-12-07T05:30:03;12.68;;;7.55;;
30048;SDS011;16879;50.852;15.602;2022-12-07T05:32:55;15.02;;;8.30;;
30048;SDS011;16879;50.852;15.602;2022-12-07T05:35:57;32.08;;;13.57;;
30048;SDS011;16879;50.852;15.602;2022-12-07T05:38:53;26.02;;;12.52;;
30048;SDS011;16879;50.852;15.602;2022-12-07T05:51:23;8.40;;;7.05;;
30048;SDS011;16879;50.852;15.602;2022-12-07T05:53:49;6.25;;;5.53;;
30048;SDS011;16879;50.852;15.602;2022-12-07T05:56:16;7.13;;;5.07;;
30048;SDS011;16879;50.852;15.602;2022-12-07T05:58:45;6.22;;;4.05;;
30048;SDS011;16879;50.852;15.602;2022-12-07T06:01:30;5.57;;;4.10;;
30048;SDS011;16879;50.852;15.602;2022-12-07T06:04:12;5.68;;;4.75;;
30048;SDS011;16879;50.852;15.602;2022-12-07T06:06:40;5.63;;;4.47;;
30048;SDS011;16879;50.852;15.602;2022-12-07T06:09:11;6.28;;;4.93;;
30048;SDS011;16879;50.852;15.602;2022-12-07T06:11:57;5.35;;;4.15;;
30048;SDS011;16879;50.852;15.602;2022-12-07T06:14:47;5.80;;;4.47;;
30048;SDS011;16879;50.852;15.602;2022-12-07T06:17:58;9.15;;;5.40;;
30048;SDS011;16879;50.852;15.602;2022-12-07T06:21:06;9.77;;;4.95;;
30048;SDS011;16879;50.852;15.602;2022-12-07T06:23:46;8.55;;;5.55;;
30048;SDS011;16879;50.852;15.602;2022-12-07T06:26:20;8.77;;;5.22;;
30048;SDS011;16879;50.852;15.602;2022-12-07T06:28:52;9.40;;;5.15;;
30048;SDS011;16879;50.852;15.602;2022-12-07T06:31:27;7.20;;;4.75;;
30048;SDS011;16879;50.852;15.602;2022-12-07T06:33:59;16.67;;;10.55;;
30048;SDS011;16879;50.852;15.602;2022-12-07T06:36:53;10.10;;;6.25;;
30048;SDS011;16879;50.852;15.602;2022-12-07T06:39:31;6.10;;;4.65;;
30048;SDS011;16879;50.852;15.602;2022-12-07T06:41:57;7.90;;;5.40;;
30048;SDS011;16879;50.852;15.602;2022-12-07T06:44:25;7.28;;;4.53;;
30048;SDS011;16879;50.852;15.602;2022-12-07T06:46:53;7.47;;;5.72;;
30048;SDS011;16879;50.852;15.602;2022-12-07T06:49:19;4.95;;;4.30;;
30048;SDS011;16879;50.852;15.602;2022-12-07T06:51:46;5.20;;;4.50;;
30048;SDS011;16879;50.852;15.602;2022-12-07T06:54:23;5.57;;;4.43;;
30048;SDS011;16879;50.852;15.602;2022-12-07T06:56:50;6.45;;;4.88;;
30048;SDS011;16879;50.852;15.602;2022-12-07T06:59:16;5.90;;;4.60;;
30048;SDS011;16879;50.852;15.602;2022-12-07T07:01:43;5.60;;;4.70;;
30048;SDS011;16879;50.852;15.602;2022-12-07T07:04:10;6.50;;;4.43;;
30048;SDS011;16879;50.852;15.602;2022-12-07T07:09:11;6.25;;;4.38;;
30048;SDS011;16879;50.852;15.602;2022-12-07T07:11:37;5.47;;;4.15;;
30048;SDS011;16879;50.852;15.602;2022-12-07T07:14:04;5.43;;;4.45;;
30048;SDS011;16879;50.852;15.602;2022-12-07T07:16:30;8.35;;;5.35;;
30048;SDS011;16879;50.852;15.602;2022-12-07T07:18:56;8.10;;;5.05;;
30048;SDS011;16879;50.852;15.602;2022-12-07T07:21:22;8.90;;;5.38;;
30048;SDS011;16879;50.852;15.602;2022-12-07T07:23:48;6.53;;;4.63;;
30048;SDS011;16879;50.852;15.602;2022-12-07T07:26:14;5.95;;;4.43;;
30048;SDS011;16879;50.852;15.602;2022-12-07T07:28:41;6.00;;;4.72;;
30048;SDS011;16879;50.852;15.602;2022-12-07T07:31:07;7.35;;;4.60;;
30048;SDS011;16879;50.852;15.602;2022-12-07T07:33:33;7.35;;;4.55;;
30048;SDS011;16879;50.852;15.602;2022-12-07T07:35:59;6.18;;;4.50;;
30048;SDS011;16879;50.852;15.602;2022-12-07T07:38:25;8.05;;;4.60;;
30048;SDS011;16879;50.852;15.602;2022-12-07T07:40:51;11.07;;;5.57;;
30048;SDS011;16879;50.852;15.602;2022-12-07T07:43:17;7.32;;;5.57;;
30048;SDS011;16879;50.852;15.602;2022-12-07T07:45:44;6.30;;;5.45;;
30048;SDS011;16879;50.852;15.602;2022-12-07T07:48:10;6.47;;;4.95;;
30048;SDS011;16879;50.852;15.602;2022-12-07T07:50:37;6.95;;;5.15;;
30048;SDS011;16879;50.852;15.602;2022-12-07T07:53:03;5.90;;;4.82;;
30048;SDS011;16879;50.852;15.602;2022-12-07T07:55:29;5.75;;;4.45;;
30048;SDS011;16879;50.852;15.602;2022-12-07T07:57:55;9.25;;;5.80;;
30048;SDS011;16879;50.852;15.602;2022-12-07T08:00:22;14.45;;;6.72;;
30048;SDS011;16879;50.852;15.602;2022-12-07T08:02:48;12.75;;;6.20;;
30048;SDS011;16879;50.852;15.602;2022-12-07T08:05:14;4.80;;;3.75;;
30048;SDS011;16879;50.852;15.602;2022-12-07T08:07:40;8.20;;;4.55;;
30048;SDS011;16879;50.852;15.602;2022-12-07T08:10:07;10.45;;;5.82;;
30048;SDS011;16879;50.852;15.602;2022-12-07T08:12:40;13.70;;;6.18;;
30048;SDS011;16879;50.852;15.602;2022-12-07T08:15:26;13.80;;;7.43;;
30048;SDS011;16879;50.852;15.602;2022-12-07T08:17:53;18.92;;;8.82;;
30048;SDS011;16879;50.852;15.602;2022-12-07T08:20:19;7.13;;;4.95;;
30048;SDS011;16879;50.852;15.602;2022-12-07T08:22:45;8.25;;;5.00;;
30048;SDS011;16879;50.852;15.602;2022-12-07T08:25:12;12.18;;;6.05;;
30048;SDS011;16879;50.852;15.602;2022-12-07T08:27:38;8.75;;;4.53;;
30048;SDS011;16879;50.852;15.602;2022-12-07T08:30:04;6.80;;;4.28;;
30048;SDS011;16879;50.852;15.602;2022-12-07T08:32:30;9.13;;;4.60;;
30048;SDS011;16879;50.852;15.602;2022-12-07T08:34:57;9.63;;;5.00;;
30048;SDS011;16879;50.852;15.602;2022-12-07T08:37:27;6.53;;;4.43;;
30048;SDS011;16879;50.852;15.602;2022-12-07T08:39:56;7.93;;;5.07;;
30048;SDS011;16879;50.852;15.602;2022-12-07T08:42:22;6.78;;;4.20;;
30048;SDS011;16879;50.852;15.602;2022-12-07T08:44:52;5.28;;;4.47;;
30048;SDS011;16879;50.852;15.602;2022-12-07T08:47:37;7.35;;;5.35;;
30048;SDS011;16879;50.852;15.602;2022-12-07T08:53:33;14.77;;;5.38;;
30048;SDS011;16879;50.852;15.602;2022-12-07T09:03:16;11.43;;;5.25;;
30048;SDS011;16879;50.852;15.602;2022-12-07T09:06:07;9.05;;;5.63;;
30048;SDS011;16879;50.852;15.602;2022-12-07T09:08:57;6.50;;;3.97;;
30048;SDS011;16879;50.852;15.602;2022-12-07T09:12:15;4.85;;;3.33;;
30048;SDS011;16879;50.852;15.602;2022-12-07T09:15:32;5.13;;;3.35;;
30048;SDS011;16879;50.852;15.602;2022-12-07T09:18:44;5.93;;;4.22;;
30048;SDS011;16879;50.852;15.602;2022-12-07T09:21:51;6.97;;;4.60;;
30048;SDS011;16879;50.852;15.602;2022-12-07T09:47:38;6.55;;;4.65;;
30048;SDS011;16879;50.852;15.602;2022-12-07T10:00:16;6.22;;;3.88;;
30048;SDS011;16879;50.852;15.602;2022-12-07T10:39:25;8.30;;;4.22;;
30048;SDS011;16879;50.852;15.602;2022-12-07T10:42:31;16.05;;;6.57;;
30048;SDS011;16879;50.852;15.602;2022-12-07T10:45:34;6.60;;;3.63;;
30048;SDS011;16879;50.852;15.602;2022-12-07T11:11:13;4.80;;;3.97;;
30048;SDS011;16879;50.852;15.602;2022-12-07T13:07:01;6.65;;;3.72;;
30048;SDS011;16879;50.852;15.602;2022-12-07T13:09:31;13.43;;;5.63;;
30048;SDS011;16879;50.852;15.602;2022-12-07T13:12:18;6.35;;;4.43;;
30048;SDS011;16879;50.852;15.602;2022-12-07T13:19:58;10.48;;;5.82;;
30048;SDS011;16879;50.852;15.602;2022-12-07T13:25:03;14.63;;;7.05;;
30048;SDS011;16879;50.852;15.602;2022-12-07T13:27:31;10.15;;;5.75;;
30048;SDS011;16879;50.852;15.602;2022-12-07T13:29:57;6.80;;;4.07;;
30048;SDS011;16879;50.852;15.602;2022-12-07T13:32:27;7.13;;;4.38;;
30048;SDS011;16879;50.852;15.602;2022-12-07T13:34:54;5.30;;;3.83;;
30048;SDS011;16879;50.852;15.602;2022-12-07T13:37:27;6.72;;;3.58;;
30048;SDS011;16879;50.852;15.602;2022-12-07T13:39:55;7.07;;;5.07;;
30048;SDS011;16879;50.852;15.602;2022-12-07T13:42:26;7.10;;;4.93;;
30048;SDS011;16879;50.852;15.602;2022-12-07T13:44:52;9.43;;;7.05;;
30048;SDS011;16879;50.852;15.602;2022-12-07T13:47:25;6.35;;;4.22;;
30048;SDS011;16879;50.852;15.602;2022-12-07T13:49:53;12.10;;;5.85;;
30048;SDS011;16879;50.852;15.602;2022-12-07T13:54:46;24.27;;;13.95;;
30048;SDS011;16879;50.852;15.602;2022-12-07T13:57:14;20.83;;;12.80;;
30048;SDS011;16879;50.852;15.602;2022-12-07T13:59:40;15.00;;;9.20;;
30048;SDS011;16879;50.852;15.602;2022-12-07T14:02:16;23.77;;;12.27;;
30048;SDS011;16879;50.852;15.602;2022-12-07T14:04:46;31.13;;;14.10;;
30048;SDS011;16879;50.852;15.602;2022-12-07T14:07:19;45.58;;;22.45;;
30048;SDS011;16879;50.852;15.602;2022-12-07T14:09:57;61.67;;;20.58;;
30048;SDS011;16879;50.852;15.602;2022-12-07T14:12:24;46.75;;;19.40;;
30048;SDS011;16879;50.852;15.602;2022-12-07T14:14:50;32.13;;;12.10;;
30048;SDS011;16879;50.852;15.602;2022-12-07T14:17:18;20.27;;;8.27;;
30048;SDS011;16879;50.852;15.602;2022-12-07T14:19:52;20.52;;;8.98;;
30048;SDS011;16879;50.852;15.602;2022-12-07T14:24:46;14.23;;;7.70;;
30048;SDS011;16879;50.852;15.602;2022-12-07T14:27:19;31.92;;;14.80;;
30048;SDS011;16879;50.852;15.602;2022-12-07T14:29:45;43.42;;;14.52;;
30048;SDS011;16879;50.852;15.602;2022-12-07T14:32:23;19.52;;;10.93;;
30048;SDS011;16879;50.852;15.602;2022-12-07T14:34:53;12.35;;;6.43;;
30048;SDS011;16879;50.852;15.602;2022-12-07T14:37:20;11.63;;;6.32;;
30048;SDS011;16879;50.852;15.602;2022-12-07T14:39:46;24.55;;;10.85;;
30048;SDS011;16879;50.852;15.602;2022-12-07T14:42:12;19.05;;;9.40;;
30048;SDS011;16879;50.852;15.602;2022-12-07T14:44:38;22.42;;;12.60;;
30048;SDS011;16879;50.852;15.602;2022-12-07T14:47:04;19.15;;;8.30;;
30048;SDS011;16879;50.852;15.602;2022-12-07T14:49:30;5.85;;;3.55;;
30048;SDS011;16879;50.852;15.602;2022-12-07T14:51:56;11.63;;;6.03;;
30048;SDS011;16879;50.852;15.602;2022-12-07T14:54:24;10.07;;;5.13;;
30048;SDS011;16879;50.852;15.602;2022-12-07T14:56:52;6.95;;;3.03;;
30048;SDS011;16879;50.852;15.602;2022-12-07T14:59:18;5.47;;;3.17;;
30048;SDS011;16879;50.852;15.602;2022-12-07T15:01:44;4.22;;;2.33;;
30048;SDS011;16879;50.852;15.602;2022-12-07T15:04:11;7.88;;;3.30;;
30048;SDS011;16879;50.852;15.602;2022-12-07T15:06:38;6.32;;;3.78;;
30048;SDS011;16879;50.852;15.602;2022-12-07T15:09:10;10.63;;;6.13;;
30048;SDS011;16879;50.852;15.602;2022-12-07T15:14:38;5.32;;;3.25;;
30048;SDS011;16879;50.852;15.602;2022-12-07T15:17:11;23.30;;;11.10;;
30048;SDS011;16879;50.852;15.602;2022-12-07T15:25:53;18.50;;;9.43;;
30048;SDS011;16879;50.852;15.602;2022-12-07T15:46:52;5.80;;;3.78;;
30048;SDS011;16879;50.852;15.602;2022-12-07T16:29:02;20.52;;;10.90;;
30048;SDS011;16879;50.852;15.602;2022-12-07T16:31:29;45.58;;;30.60;;
30048;SDS011;16879;50.852;15.602;2022-12-07T16:33:56;30.40;;;16.23;;
30048;SDS011;16879;50.852;15.602;2022-12-07T16:36:23;19.92;;;12.55;;
30048;SDS011;16879;50.852;15.602;2022-12-07T16:38:50;21.67;;;11.43;;
30048;SDS011;16879;50.852;15.602;2022-12-07T16:41:16;18.77;;;9.77;;
30048;SDS011;16879;50.852;15.602;2022-12-07T16:43:42;14.65;;;9.65;;
30048;SDS011;16879;50.852;15.602;2022-12-07T16:46:09;28.77;;;14.65;;
30048;SDS011;16879;50.852;15.602;2022-12-07T16:48:36;54.45;;;24.50;;
30048;SDS011;16879;50.852;15.602;2022-12-07T16:51:05;28.25;;;13.57;;
30048;SDS011;16879;50.852;15.602;2022-12-07T16:53:33;29.77;;;14.68;;
30048;SDS011;16879;50.852;15.602;2022-12-07T16:56:01;40.05;;;19.85;;
30048;SDS011;16879;50.852;15.602;2022-12-07T16:58:30;52.28;;;23.92;;
30048;SDS011;16879;50.852;15.602;2022-12-07T17:00:56;35.25;;;18.42;;
30048;SDS011;16879;50.852;15.602;2022-12-07T17:03:23;40.38;;;19.27;;
30048;SDS011;16879;50.852;15.602;2022-12-07T17:05:50;41.83;;;18.70;;
30048;SDS011;16879;50.852;15.602;2022-12-07T17:08:17;35.08;;;15.63;;
30048;SDS011;16879;50.852;15.602;2022-12-07T17:10:44;30.33;;;15.68;;
30048;SDS011;16879;50.852;15.602;2022-12-07T17:13:11;40.05;;;18.90;;
30048;SDS011;16879;50.852;15.602;2022-12-07T17:16:00;43.78;;;25.10;;
30048;SDS011;16879;50.852;15.602;2022-12-07T17:18:31;38.97;;;21.15;;
30048;SDS011;16879;50.852;15.602;2022-12-07T17:21:06;33.88;;;17.80;;
30048;SDS011;16879;50.852;15.602;2022-12-07T17:23:34;35.60;;;19.33;;
30048;SDS011;16879;50.852;15.602;2022-12-07T17:26:04;30.27;;;15.73;;
30048;SDS011;16879;50.852;15.602;2022-12-07T17:28:32;37.42;;;17.48;;
30048;SDS011;16879;50.852;15.602;2022-12-07T17:30:58;49.83;;;24.80;;
30048;SDS011;16879;50.852;15.602;2022-12-07T17:33:43;23.48;;;11.50;;
30048;SDS011;16879;50.852;15.602;2022-12-07T17:36:13;14.52;;;8.90;;
30048;SDS011;16879;50.852;15.602;2022-12-07T17:38:42;16.45;;;9.82;;
30048;SDS011;16879;50.852;15.602;2022-12-07T17:41:21;28.75;;;15.57;;
30048;SDS011;16879;50.852;15.602;2022-12-07T17:44:28;35.65;;;18.67;;
30048;SDS011;16879;50.852;15.602;2022-12-07T17:47:17;18.25;;;10.00;;
30048;SDS011;16879;50.852;15.602;2022-12-07T17:53:19;9.95;;;7.10;;
30048;SDS011;16879;50.852;15.602;2022-12-07T17:55:52;8.73;;;5.85;;
30048;SDS011;16879;50.852;15.602;2022-12-07T17:58:19;9.85;;;6.15;;
30048;SDS011;16879;50.852;15.602;2022-12-07T18:01:17;12.70;;;7.07;;
30048;SDS011;16879;50.852;15.602;2022-12-07T18:04:21;30.88;;;16.92;;
30048;SDS011;16879;50.852;15.602;2022-12-07T18:10:00;35.67;;;18.50;;
30048;SDS011;16879;50.852;15.602;2022-12-07T18:19:47;37.95;;;19.38;;
30048;SDS011;16879;50.852;15.602;2022-12-07T18:22:26;53.70;;;22.20;;
30048;SDS011;16879;50.852;15.602;2022-12-07T18:25:19;47.50;;;22.98;;
30048;SDS011;16879;50.852;15.602;2022-12-07T18:33:50;24.20;;;11.65;;
30048;SDS011;16879;50.852;15.602;2022-12-07T18:39:43;24.63;;;13.10;;
30048;SDS011;16879;50.852;15.602;2022-12-07T21:39:54;8.52;;;3.55;;
30048;SDS011;16879;50.852;15.602;2022-12-07T21:42:23;14.10;;;5.00;;
30048;SDS011;16879;50.852;15.602;2022-12-07T21:44:55;11.65;;;5.72;;
30048;SDS011;16879;50.852;15.602;2022-12-07T21:47:46;20.98;;;8.48;;
30048;SDS011;16879;50.852;15.602;2022-12-07T21:50:12;12.07;;;5.32;;
30048;SDS011;16879;50.852;15.602;2022-12-07T21:52:38;13.65;;;5.72;;
30048;SDS011;16879;50.852;15.602;2022-12-07T21:55:04;8.65;;;4.35;;
30048;SDS011;16879;50.852;15.602;2022-12-07T21:57:31;13.35;;;6.78;;
30048;SDS011;16879;50.852;15.602;2022-12-07T22:03:04;9.15;;;5.03;;
30048;SDS011;16879;50.852;15.602;2022-12-07T22:06:28;9.90;;;4.38;;
30048;SDS011;16879;50.852;15.602;2022-12-07T22:09:16;19.17;;;7.60;;
30048;SDS011;16879;50.852;15.602;2022-12-07T22:11:58;14.52;;;6.53;;
30048;SDS011;16879;50.852;15.602;2022-12-07T22:14:51;19.15;;;7.78;;
30048;SDS011;16879;50.852;15.602;2022-12-07T22:17:37;10.52;;;5.95;;
30048;SDS011;16879;50.852;15.602;2022-12-07T22:20:16;10.98;;;6.43;;
30048;SDS011;16879;50.852;15.602;2022-12-07T22:22:46;8.45;;;4.07;;
30048;SDS011;16879;50.852;15.602;2022-12-07T22:25:52;8.95;;;4.78;;
30048;SDS011;16879;50.852;15.602;2022-12-07T22:28:18;6.43;;;3.50;;
30048;SDS011;16879;50.852;15.602;2022-12-07T22:30:44;5.20;;;3.78;;
30048;SDS011;16879;50.852;15.602;2022-12-07T22:33:11;10.73;;;4.47;;
30048;SDS011;16879;50.852;15.602;2022-12-07T22:35:43;11.60;;;3.85;;
30048;SDS011;16879;50.852;15.602;2022-12-07T22:38:25;4.78;;;3.17;;
30048;SDS011;16879;50.852;15.602;2022-12-07T22:40:52;5.07;;;2.33;;
30048;SDS011;16879;50.852;15.602;2022-12-07T22:43:19;11.90;;;4.65;;
30048;SDS011;16879;50.852;15.602;2022-12-07T22:45:55;7.57;;;3.67;;
30048;SDS011;16879;50.852;15.602;2022-12-07T22:48:21;12.10;;;5.55;;
30048;SDS011;16879;50.852;15.602;2022-12-07T22:50:48;6.68;;;3.75;;
30048;SDS011;16879;50.852;15.602;2022-12-07T22:53:14;10.05;;;3.00;;
30048;SDS011;16879;50.852;15.602;2022-12-07T22:55:45;10.27;;;4.20;;
30048;SDS011;16879;50.852;15.602;2022-12-07T22:58:14;10.55;;;3.92;;
30048;SDS011;16879;50.852;15.602;2022-12-07T23:00:40;4.70;;;2.75;;
30048;SDS011;16879;50.852;15.602;2022-12-07T23:03:06;16.23;;;4.75;;
30048;SDS011;16879;50.852;15.602;2022-12-07T23:05:33;16.73;;;6.78;;
30048;SDS011;16879;50.852;15.602;2022-12-07T23:07:59;14.73;;;5.97;;
30048;SDS011;16879;50.852;15.602;2022-12-07T23:10:28;21.83;;;8.05;;
30048;SDS011;16879;50.852;15.602;2022-12-07T23:12:56;11.18;;;4.85;;
30048;SDS011;16879;50.852;15.602;2022-12-07T23:15:41;12.45;;;4.00;;
30048;SDS011;16879;50.852;15.602;2022-12-07T23:18:08;17.10;;;5.82;;
30048;SDS011;16879;50.852;15.602;2022-12-07T23:20:47;23.25;;;10.32;;
30048;SDS011;16879;50.852;15.602;2022-12-07T23:23:19;20.17;;;9.18;;
30048;SDS011;16879;50.852;15.602;2022-12-07T23:25:45;21.73;;;8.52;;
30048;SDS011;16879;50.852;15.602;2022-12-07T23:28:11;16.63;;;6.93;;
30048;SDS011;16879;50.852;15.602;2022-12-07T23:30:38;17.88;;;6.85;;
30048;SDS011;16879;50.852;15.602;2022-12-07T23:33:04;26.02;;;8.68;;
30048;SDS011;16879;50.852;15.602;2022-12-07T23:35:30;29.33;;;10.15;;
30048;SDS011;16879;50.852;15.602;2022-12-07T23:37:56;28.52;;;12.57;;
30048;SDS011;16879;50.852;15.602;2022-12-07T23:40:23;24.08;;;9.23;;
30048;SDS011;16879;50.852;15.602;2022-12-07T23:42:49;17.30;;;7.13;;
30048;SDS011;16879;50.852;15.602;2022-12-07T23:45:15;22.35;;;9.07;;
30048;SDS011;16879;50.852;15.602;2022-12-07T23:47:41;28.98;;;10.98;;
30048;SDS011;16879;50.852;15.602;2022-12-07T23:50:07;34.10;;;12.75;;
30048;SDS011;16879;50.852;15.602;2022-12-07T23:52:34;33.67;;;13.48;;
30048;SDS011;16879;50.852;15.602;2022-12-07T23:55:00;63.25;;;20.65;;
30048;SDS011;16879;50.852;15.602;2022-12-07T23:57:26;222.45;;;73.43;;
30048;SDS011;16879;50.852;15.602;2022-12-07T23:59:52;289.00;;;82.97;;
